N60YA -KLAL
Flight info
| Callsign | N60YA |
|---|---|
| Flight time | N/A |
| Altitude | VFR/175 |
| Route | |
| Aircraft | A36/L-DOV/C |
Departure
| Time | N/A |
|---|---|
| Airport | - |
Arrival
| Time | 2026-04-22 02:39 |
|---|---|
| Airport | Lakeland Linder International Airport (KLAL) |
| Time | Latitude | Longitude | Altitude | Speed | Heading |
|---|---|---|---|---|---|
| 2026-04-21 23:34 | 30.37593 | -88.68708 | 5504 ft | 159 kts | 103° |
| 2026-04-21 23:34 | 30.37256 | -88.67062 | 5505 ft | 158 kts | 103° |
| 2026-04-21 23:35 | 30.37085 | -88.66223 | 5508 ft | 159 kts | 103° |
| 2026-04-21 23:35 | 30.36829 | -88.64970 | 5510 ft | 162 kts | 103° |
| 2026-04-21 23:35 | 30.36569 | -88.63693 | 5505 ft | 164 kts | 103° |
| 2026-04-21 23:35 | 30.36306 | -88.62408 | 5505 ft | 164 kts | 103° |
| 2026-04-21 23:36 | 30.36046 | -88.61142 | 5505 ft | 163 kts | 103° |
| 2026-04-21 23:36 | 30.35781 | -88.59847 | 5506 ft | 163 kts | 103° |
| 2026-04-21 23:36 | 30.35520 | -88.58568 | 5506 ft | 163 kts | 103° |
| 2026-04-21 23:36 | 30.35262 | -88.57308 | 5507 ft | 164 kts | 103° |
| 2026-04-21 23:37 | 30.34997 | -88.56019 | 5508 ft | 165 kts | 103° |
| 2026-04-21 23:37 | 30.34734 | -88.54733 | 5504 ft | 164 kts | 103° |
| 2026-04-21 23:37 | 30.34470 | -88.53447 | 5505 ft | 164 kts | 103° |
| 2026-04-21 23:37 | 30.34206 | -88.52157 | 5509 ft | 166 kts | 103° |
| 2026-04-21 23:38 | 30.33938 | -88.50856 | 5504 ft | 166 kts | 103° |
| 2026-04-21 23:38 | 30.33670 | -88.49554 | 5507 ft | 166 kts | 103° |
| 2026-04-21 23:38 | 30.33403 | -88.48252 | 5508 ft | 166 kts | 103° |
| 2026-04-21 23:38 | 30.33135 | -88.46950 | 5510 ft | 167 kts | 103° |
| 2026-04-21 23:39 | 30.32864 | -88.45634 | 5507 ft | 169 kts | 104° |
| 2026-04-21 23:39 | 30.32593 | -88.44321 | 5503 ft | 167 kts | 103° |
| 2026-04-21 23:39 | 30.32325 | -88.43017 | 5502 ft | 166 kts | 103° |
| 2026-04-21 23:39 | 30.32059 | -88.41723 | 5500 ft | 165 kts | 103° |
| 2026-04-21 23:40 | 30.31792 | -88.40432 | 5499 ft | 164 kts | 103° |
| 2026-04-21 23:40 | 30.31526 | -88.39145 | 5498 ft | 164 kts | 103° |
| 2026-04-21 23:40 | 30.31262 | -88.37864 | 5498 ft | 164 kts | 103° |
| 2026-04-21 23:40 | 30.30997 | -88.36583 | 5497 ft | 164 kts | 103° |
| 2026-04-21 23:41 | 30.30731 | -88.35299 | 5497 ft | 163 kts | 103° |
| 2026-04-21 23:41 | 30.30468 | -88.34022 | 5496 ft | 163 kts | 103° |
| 2026-04-21 23:41 | 30.30203 | -88.32741 | 5496 ft | 163 kts | 103° |
| 2026-04-21 23:41 | 30.29938 | -88.31465 | 5496 ft | 163 kts | 104° |
| 2026-04-21 23:42 | 30.29674 | -88.30187 | 5496 ft | 163 kts | 103° |
| 2026-04-21 23:42 | 30.29409 | -88.28913 | 5495 ft | 163 kts | 103° |
| 2026-04-21 23:42 | 30.29145 | -88.27637 | 5495 ft | 163 kts | 104° |
| 2026-04-21 23:42 | 30.28884 | -88.26379 | 5495 ft | 163 kts | 103° |
| 2026-04-21 23:43 | 30.28619 | -88.25103 | 5495 ft | 163 kts | 103° |
| 2026-04-21 23:43 | 30.28354 | -88.23824 | 5496 ft | 164 kts | 104° |
| 2026-04-21 23:43 | 30.28086 | -88.22536 | 5497 ft | 165 kts | 103° |
| 2026-04-21 23:43 | 30.27814 | -88.21230 | 5497 ft | 165 kts | 103° |
| 2026-04-21 23:44 | 30.27550 | -88.19957 | 5498 ft | 165 kts | 104° |
| 2026-04-21 23:44 | 30.27280 | -88.18662 | 5499 ft | 165 kts | 103° |
| 2026-04-21 23:44 | 30.27010 | -88.17365 | 5499 ft | 165 kts | 104° |
| 2026-04-21 23:44 | 30.26741 | -88.16070 | 5499 ft | 166 kts | 104° |
| 2026-04-21 23:45 | 30.26470 | -88.14774 | 5499 ft | 166 kts | 104° |
| 2026-04-21 23:45 | 30.26071 | -88.12161 | 5497 ft | 166 kts | 85° |
| 2026-04-21 23:45 | 30.26180 | -88.10833 | 5499 ft | 166 kts | 85° |
| 2026-04-21 23:46 | 30.26263 | -88.09497 | 5500 ft | 166 kts | 86° |
| 2026-04-21 23:46 | 30.26348 | -88.08160 | 5500 ft | 166 kts | 85° |
| 2026-04-21 23:46 | 30.26436 | -88.06825 | 5500 ft | 166 kts | 85° |
| 2026-04-21 23:46 | 30.26523 | -88.05492 | 5500 ft | 166 kts | 85° |
| 2026-04-21 23:47 | 30.26610 | -88.04155 | 5500 ft | 166 kts | 85° |
| 2026-04-21 23:47 | 30.26696 | -88.02827 | 5499 ft | 166 kts | 85° |
| 2026-04-21 23:47 | 30.26783 | -88.01494 | 5499 ft | 166 kts | 85° |
| 2026-04-21 23:47 | 30.26869 | -88.00166 | 5499 ft | 166 kts | 85° |
| 2026-04-21 23:48 | 30.26955 | -87.98836 | 5499 ft | 166 kts | 85° |
| 2026-04-21 23:48 | 30.27041 | -87.97505 | 5499 ft | 166 kts | 85° |
| 2026-04-21 23:48 | 30.27126 | -87.96175 | 5499 ft | 166 kts | 85° |
| 2026-04-21 23:48 | 30.27213 | -87.94844 | 5499 ft | 166 kts | 85° |
| 2026-04-21 23:49 | 30.27298 | -87.93513 | 5499 ft | 166 kts | 85° |
| 2026-04-21 23:49 | 30.27383 | -87.92178 | 5499 ft | 166 kts | 86° |
| 2026-04-21 23:49 | 30.27469 | -87.90849 | 5499 ft | 166 kts | 85° |
| 2026-04-21 23:49 | 30.27552 | -87.89536 | 5499 ft | 166 kts | 85° |
| 2026-04-21 23:50 | 30.27638 | -87.88204 | 5499 ft | 166 kts | 86° |
| 2026-04-21 23:50 | 30.27723 | -87.86871 | 5499 ft | 166 kts | 85° |
| 2026-04-21 23:50 | 30.27807 | -87.85541 | 5499 ft | 166 kts | 85° |
| 2026-04-21 23:50 | 30.27892 | -87.84210 | 5499 ft | 166 kts | 86° |
| 2026-04-21 23:51 | 30.27977 | -87.82878 | 5499 ft | 166 kts | 85° |
| 2026-04-21 23:51 | 30.28061 | -87.81548 | 5499 ft | 166 kts | 85° |
| 2026-04-21 23:51 | 30.28145 | -87.80217 | 5499 ft | 166 kts | 86° |
| 2026-04-21 23:51 | 30.28229 | -87.78889 | 5499 ft | 166 kts | 85° |
| 2026-04-21 23:52 | 30.28313 | -87.77559 | 5499 ft | 166 kts | 86° |
| 2026-04-21 23:52 | 30.28397 | -87.76228 | 5499 ft | 166 kts | 86° |
| 2026-04-21 23:52 | 30.28481 | -87.74896 | 5505 ft | 166 kts | 85° |
| 2026-04-21 23:52 | 30.28563 | -87.73556 | 5500 ft | 167 kts | 86° |
| 2026-04-21 23:53 | 30.28650 | -87.72212 | 5504 ft | 168 kts | 85° |
| 2026-04-21 23:53 | 30.28732 | -87.70883 | 5501 ft | 167 kts | 86° |
| 2026-04-21 23:53 | 30.28816 | -87.69529 | 5501 ft | 166 kts | 86° |
| 2026-04-21 23:53 | 30.28899 | -87.68213 | 5504 ft | 167 kts | 85° |
| 2026-04-21 23:54 | 30.29001 | -87.66868 | 5506 ft | 169 kts | 81° |
| 2026-04-21 23:54 | 30.29204 | -87.65527 | 5510 ft | 171 kts | 81° |
| 2026-04-21 23:54 | 30.29393 | -87.64165 | 5505 ft | 171 kts | 81° |
| 2026-04-21 23:54 | 30.29582 | -87.62812 | 5504 ft | 170 kts | 80° |
| 2026-04-21 23:55 | 30.29775 | -87.61457 | 5503 ft | 170 kts | 81° |
| 2026-04-21 23:55 | 30.29963 | -87.60111 | 5503 ft | 169 kts | 81° |
| 2026-04-21 23:55 | 30.30152 | -87.58773 | 5502 ft | 168 kts | 81° |
| 2026-04-21 23:55 | 30.30342 | -87.57435 | 5501 ft | 167 kts | 81° |
| 2026-04-21 23:56 | 30.30529 | -87.56109 | 5499 ft | 167 kts | 81° |
| 2026-04-21 23:56 | 30.30715 | -87.54784 | 5498 ft | 167 kts | 81° |
| 2026-04-21 23:56 | 30.30901 | -87.53460 | 5498 ft | 167 kts | 81° |
| 2026-04-21 23:56 | 30.31088 | -87.52136 | 5500 ft | 168 kts | 81° |
| 2026-04-21 23:57 | 30.31273 | -87.50820 | 5498 ft | 167 kts | 81° |
| 2026-04-21 23:57 | 30.31459 | -87.49496 | 5500 ft | 167 kts | 81° |
| 2026-04-21 23:57 | 30.31648 | -87.48157 | 5506 ft | 170 kts | 80° |
| 2026-04-21 23:57 | 30.31836 | -87.46808 | 5501 ft | 169 kts | 81° |
| 2026-04-21 23:58 | 30.32024 | -87.45469 | 5500 ft | 168 kts | 81° |
| 2026-04-21 23:58 | 30.32210 | -87.44140 | 5503 ft | 167 kts | 80° |
| 2026-04-21 23:58 | 30.32397 | -87.42809 | 5498 ft | 167 kts | 81° |
| 2026-04-21 23:58 | 30.32581 | -87.41485 | 5499 ft | 166 kts | 81° |
| 2026-04-21 23:59 | 30.32769 | -87.40161 | 5505 ft | 168 kts | 80° |
| 2026-04-21 23:59 | 30.32956 | -87.38824 | 5505 ft | 168 kts | 81° |
| 2026-04-21 23:59 | 30.33139 | -87.37476 | 5508 ft | 172 kts | 80° |
| 2026-04-21 23:59 | 30.33331 | -87.36109 | 5508 ft | 172 kts | 81° |
| 2026-04-22 00:00 | 30.33521 | -87.34743 | 5506 ft | 172 kts | 81° |
| 2026-04-22 00:00 | 30.33710 | -87.33384 | 5504 ft | 171 kts | 81° |
| 2026-04-22 00:00 | 30.33900 | -87.32028 | 5505 ft | 169 kts | 81° |
| 2026-04-22 00:00 | 30.34085 | -87.30701 | 5500 ft | 169 kts | 81° |
| 2026-04-22 00:01 | 30.34270 | -87.29363 | 5499 ft | 168 kts | 81° |
| 2026-04-22 00:01 | 30.34455 | -87.28031 | 5498 ft | 167 kts | 81° |
| 2026-04-22 00:01 | 30.34639 | -87.26699 | 5504 ft | 169 kts | 81° |
| 2026-04-22 00:01 | 30.34825 | -87.25358 | 5498 ft | 168 kts | 81° |
| 2026-04-22 00:02 | 30.35010 | -87.24027 | 5497 ft | 167 kts | 81° |
| 2026-04-22 00:02 | 30.35194 | -87.22698 | 5496 ft | 167 kts | 81° |
| 2026-04-22 00:02 | 30.35377 | -87.21373 | 5496 ft | 166 kts | 81° |
| 2026-04-22 00:02 | 30.35560 | -87.20051 | 5495 ft | 166 kts | 81° |
| 2026-04-22 00:03 | 30.35742 | -87.18720 | 5502 ft | 169 kts | 81° |
| 2026-04-22 00:03 | 30.35929 | -87.17368 | 5503 ft | 171 kts | 81° |
| 2026-04-22 00:03 | 30.36117 | -87.16010 | 5505 ft | 171 kts | 81° |
| 2026-04-22 00:03 | 30.36304 | -87.14645 | 5507 ft | 172 kts | 81° |
| 2026-04-22 00:04 | 30.36493 | -87.13279 | 5508 ft | 173 kts | 81° |
| 2026-04-22 00:04 | 30.36682 | -87.11902 | 5509 ft | 173 kts | 81° |
| 2026-04-22 00:04 | 30.36868 | -87.10530 | 5504 ft | 171 kts | 81° |
| 2026-04-22 00:04 | 30.37057 | -87.09180 | 5502 ft | 169 kts | 81° |
| 2026-04-22 00:05 | 30.37240 | -87.07840 | 5500 ft | 168 kts | 81° |
| 2026-04-22 00:05 | 30.37422 | -87.06508 | 5498 ft | 167 kts | 81° |
| 2026-04-22 00:05 | 30.37604 | -87.05180 | 5497 ft | 167 kts | 81° |
| 2026-04-22 00:05 | 30.37783 | -87.03872 | 5496 ft | 166 kts | 81° |
| 2026-04-22 00:06 | 30.37963 | -87.02550 | 5495 ft | 166 kts | 81° |
| 2026-04-22 00:06 | 30.38145 | -87.01228 | 5495 ft | 166 kts | 81° |
| 2026-04-22 00:06 | 30.38325 | -86.99905 | 5494 ft | 166 kts | 81° |
| 2026-04-22 00:06 | 30.38504 | -86.98589 | 5494 ft | 166 kts | 81° |
| 2026-04-22 00:07 | 30.38685 | -86.97268 | 5494 ft | 166 kts | 81° |
| 2026-04-22 00:07 | 30.38864 | -86.95949 | 5494 ft | 166 kts | 81° |
| 2026-04-22 00:07 | 30.39044 | -86.94628 | 5494 ft | 166 kts | 81° |
| 2026-04-22 00:07 | 30.39224 | -86.93308 | 5494 ft | 166 kts | 81° |
| 2026-04-22 00:08 | 30.39403 | -86.91988 | 5494 ft | 166 kts | 81° |
| 2026-04-22 00:08 | 30.39581 | -86.90673 | 5494 ft | 166 kts | 81° |
| 2026-04-22 00:08 | 30.39761 | -86.89351 | 5494 ft | 166 kts | 81° |
| 2026-04-22 00:08 | 30.39936 | -86.88031 | 5496 ft | 166 kts | 82° |
| 2026-04-22 00:09 | 30.40114 | -86.86702 | 5501 ft | 167 kts | 81° |
| 2026-04-22 00:09 | 30.40306 | -86.85356 | 5499 ft | 171 kts | 81° |
| 2026-04-22 00:09 | 30.40489 | -86.83996 | 5509 ft | 171 kts | 81° |
| 2026-04-22 00:09 | 30.40632 | -86.82633 | 5503 ft | 170 kts | 91° |
| 2026-04-22 00:10 | 30.40562 | -86.81264 | 5500 ft | 170 kts | 93° |
| 2026-04-22 00:10 | 30.40503 | -86.79905 | 5499 ft | 169 kts | 92° |
| 2026-04-22 00:10 | 30.40444 | -86.78548 | 5499 ft | 169 kts | 93° |
| 2026-04-22 00:10 | 30.40386 | -86.77196 | 5498 ft | 168 kts | 92° |
| 2026-04-22 00:11 | 30.40329 | -86.75867 | 5498 ft | 167 kts | 93° |
| 2026-04-22 00:11 | 30.40270 | -86.74525 | 5497 ft | 167 kts | 93° |
| 2026-04-22 00:11 | 30.40214 | -86.73183 | 5496 ft | 166 kts | 93° |
| 2026-04-22 00:11 | 30.40163 | -86.71846 | 5496 ft | 166 kts | 92° |
| 2026-04-22 00:12 | 30.40096 | -86.70504 | 5499 ft | 168 kts | 93° |
| 2026-04-22 00:12 | 30.40034 | -86.69142 | 5502 ft | 170 kts | 92° |
| 2026-04-22 00:12 | 30.39978 | -86.67774 | 5508 ft | 170 kts | 92° |
| 2026-04-22 00:12 | 30.39916 | -86.66391 | 5508 ft | 172 kts | 93° |
| 2026-04-22 00:13 | 30.39855 | -86.65006 | 5509 ft | 172 kts | 92° |
| 2026-04-22 00:13 | 30.39797 | -86.63629 | 5505 ft | 170 kts | 93° |
| 2026-04-22 00:13 | 30.39736 | -86.62255 | 5509 ft | 172 kts | 93° |
| 2026-04-22 00:13 | 30.39672 | -86.60869 | 5509 ft | 174 kts | 92° |
| 2026-04-22 00:14 | 30.39614 | -86.59466 | 5508 ft | 175 kts | 92° |
| 2026-04-22 00:14 | 30.39550 | -86.58055 | 5509 ft | 176 kts | 92° |
| 2026-04-22 00:14 | 30.39487 | -86.56637 | 5508 ft | 175 kts | 92° |
| 2026-04-22 00:14 | 30.39426 | -86.55229 | 5508 ft | 175 kts | 92° |
| 2026-04-22 00:15 | 30.39361 | -86.53821 | 5500 ft | 174 kts | 93° |
| 2026-04-22 00:15 | 30.39295 | -86.52426 | 5498 ft | 172 kts | 93° |
| 2026-04-22 00:15 | 30.39237 | -86.51067 | 5500 ft | 170 kts | 91° |
| 2026-04-22 00:15 | 30.39176 | -86.49686 | 5495 ft | 169 kts | 94° |
| 2026-04-22 00:16 | 30.39113 | -86.48321 | 5498 ft | 171 kts | 93° |
| 2026-04-22 00:16 | 30.39053 | -86.46947 | 5499 ft | 171 kts | 93° |
| 2026-04-22 00:16 | 30.38990 | -86.45567 | 5500 ft | 172 kts | 93° |
| 2026-04-22 00:16 | 30.38926 | -86.44203 | 5499 ft | 171 kts | 93° |
| 2026-04-22 00:17 | 30.38865 | -86.42827 | 5502 ft | 172 kts | 93° |
| 2026-04-22 00:17 | 30.38800 | -86.41433 | 5497 ft | 173 kts | 94° |
| 2026-04-22 00:17 | 30.38735 | -86.40036 | 5503 ft | 174 kts | 92° |
| 2026-04-22 00:17 | 30.38674 | -86.38651 | 5502 ft | 171 kts | 93° |
| 2026-04-22 00:18 | 30.38610 | -86.37269 | 5496 ft | 171 kts | 93° |
| 2026-04-22 00:18 | 30.38547 | -86.35888 | 5502 ft | 172 kts | 93° |
| 2026-04-22 00:18 | 30.38482 | -86.34499 | 5504 ft | 173 kts | 93° |
| 2026-04-22 00:18 | 30.38416 | -86.33107 | 5502 ft | 172 kts | 93° |
| 2026-04-22 00:19 | 30.38355 | -86.31726 | 5499 ft | 171 kts | 93° |
| 2026-04-22 00:19 | 30.38290 | -86.30353 | 5498 ft | 170 kts | 93° |
| 2026-04-22 00:19 | 30.38227 | -86.28988 | 5496 ft | 169 kts | 93° |
| 2026-04-22 00:19 | 30.38163 | -86.27625 | 5492 ft | 169 kts | 93° |
| 2026-04-22 00:20 | 30.38100 | -86.26292 | 5494 ft | 168 kts | 93° |
| 2026-04-22 00:20 | 30.38037 | -86.24944 | 5493 ft | 167 kts | 93° |
| 2026-04-22 00:20 | 30.37973 | -86.23603 | 5493 ft | 166 kts | 93° |
| 2026-04-22 00:20 | 30.37912 | -86.22267 | 5491 ft | 167 kts | 93° |
| 2026-04-22 00:21 | 30.37848 | -86.20927 | 5491 ft | 167 kts | 93° |
| 2026-04-22 00:21 | 30.37784 | -86.19589 | 5491 ft | 166 kts | 93° |
| 2026-04-22 00:21 | 30.37721 | -86.18252 | 5496 ft | 167 kts | 93° |
| 2026-04-22 00:21 | 30.37656 | -86.16900 | 5492 ft | 168 kts | 93° |
| 2026-04-22 00:22 | 30.37613 | -86.16005 | 5498 ft | 167 kts | 93° |
| 2026-04-22 00:22 | 30.37549 | -86.14653 | 5496 ft | 169 kts | 93° |
| 2026-04-22 00:22 | 30.37485 | -86.13294 | 5493 ft | 168 kts | 93° |
| 2026-04-22 00:22 | 30.37421 | -86.11949 | 5493 ft | 167 kts | 93° |
| 2026-04-22 00:23 | 30.37357 | -86.10608 | 5489 ft | 165 kts | 92° |
| 2026-04-22 00:23 | 30.37459 | -86.09294 | 5477 ft | 167 kts | 82° |
| 2026-04-22 00:23 | 30.37419 | -86.07967 | 5496 ft | 165 kts | 98° |
| 2026-04-22 00:23 | 30.37259 | -86.06650 | 5498 ft | 165 kts | 98° |
| 2026-04-22 00:24 | 30.37119 | -86.05326 | 5499 ft | 165 kts | 95° |
| 2026-04-22 00:24 | 30.37035 | -86.03994 | 5500 ft | 165 kts | 94° |
| 2026-04-22 00:24 | 30.36970 | -86.02664 | 5500 ft | 165 kts | 93° |
| 2026-04-22 00:24 | 30.36906 | -86.01330 | 5506 ft | 168 kts | 93° |
| 2026-04-22 00:25 | 30.36840 | -85.99979 | 5510 ft | 169 kts | 93° |
| 2026-04-22 00:25 | 30.36775 | -85.98620 | 5504 ft | 168 kts | 93° |
| 2026-04-22 00:25 | 30.36708 | -85.97288 | 5504 ft | 167 kts | 93° |
| 2026-04-22 00:25 | 30.36642 | -85.95945 | 5503 ft | 167 kts | 93° |
| 2026-04-22 00:26 | 30.36575 | -85.94577 | 5499 ft | 169 kts | 93° |
| 2026-04-22 00:26 | 30.36509 | -85.93240 | 5506 ft | 169 kts | 93° |
| 2026-04-22 00:26 | 30.36442 | -85.91873 | 5503 ft | 170 kts | 93° |
| 2026-04-22 00:26 | 30.36372 | -85.90505 | 5502 ft | 170 kts | 93° |
| 2026-04-22 00:27 | 30.36307 | -85.89142 | 5503 ft | 169 kts | 93° |
| 2026-04-22 00:27 | 30.36238 | -85.87785 | 5500 ft | 168 kts | 93° |
| 2026-04-22 00:27 | 30.36172 | -85.86442 | 5499 ft | 167 kts | 93° |
| 2026-04-22 00:27 | 30.36104 | -85.85096 | 5499 ft | 167 kts | 93° |
| 2026-04-22 00:28 | 30.36037 | -85.83755 | 5501 ft | 167 kts | 93° |
| 2026-04-22 00:28 | 30.35969 | -85.82409 | 5498 ft | 167 kts | 93° |
| 2026-04-22 00:28 | 30.35784 | -85.81097 | 5493 ft | 166 kts | 113° |
| 2026-04-22 00:28 | 30.35120 | -85.80013 | 5494 ft | 167 kts | 139° |
| 2026-04-22 00:29 | 30.34106 | -85.79372 | 5495 ft | 167 kts | 165° |
| 2026-04-22 00:29 | 30.32956 | -85.79195 | 5494 ft | 166 kts | 175° |
| 2026-04-22 00:29 | 30.31805 | -85.79052 | 5499 ft | 167 kts | 174° |
| 2026-04-22 00:29 | 30.30649 | -85.78904 | 5503 ft | 167 kts | 174° |
| 2026-04-22 00:30 | 30.29491 | -85.78756 | 5506 ft | 168 kts | 174° |
| 2026-04-22 00:30 | 30.28323 | -85.78609 | 5501 ft | 169 kts | 174° |
| 2026-04-22 00:30 | 30.27161 | -85.78461 | 5500 ft | 167 kts | 174° |
| 2026-04-22 00:30 | 30.26008 | -85.78315 | 5499 ft | 166 kts | 174° |
| 2026-04-22 00:31 | 30.24862 | -85.78169 | 5498 ft | 165 kts | 174° |
| 2026-04-22 00:31 | 30.23713 | -85.78023 | 5497 ft | 167 kts | 174° |
| 2026-04-22 00:31 | 30.22562 | -85.77877 | 5497 ft | 166 kts | 174° |
| 2026-04-22 00:31 | 30.21429 | -85.77735 | 5497 ft | 165 kts | 174° |
| 2026-04-22 00:32 | 30.20277 | -85.77588 | 5496 ft | 165 kts | 174° |
| 2026-04-22 00:32 | 30.19151 | -85.77446 | 5495 ft | 165 kts | 174° |
| 2026-04-22 00:32 | 30.18011 | -85.77301 | 5498 ft | 166 kts | 174° |
| 2026-04-22 00:32 | 30.16860 | -85.77155 | 5500 ft | 167 kts | 174° |
| 2026-04-22 00:33 | 30.15701 | -85.77009 | 5504 ft | 168 kts | 174° |
| 2026-04-22 00:33 | 30.14537 | -85.76862 | 5500 ft | 168 kts | 174° |
| 2026-04-22 00:33 | 30.13383 | -85.76715 | 5500 ft | 166 kts | 174° |
| 2026-04-22 00:33 | 30.12235 | -85.76570 | 5498 ft | 166 kts | 174° |
| 2026-04-22 00:34 | 30.11093 | -85.76425 | 5497 ft | 165 kts | 174° |
| 2026-04-22 00:34 | 30.09950 | -85.76280 | 5497 ft | 165 kts | 174° |
| 2026-04-22 00:34 | 30.08810 | -85.76137 | 5496 ft | 165 kts | 174° |
| 2026-04-22 00:34 | 30.07675 | -85.75993 | 5496 ft | 164 kts | 174° |
| 2026-04-22 00:35 | 30.06537 | -85.75849 | 5495 ft | 164 kts | 174° |
| 2026-04-22 00:35 | 30.05400 | -85.75706 | 5495 ft | 164 kts | 174° |
| 2026-04-22 00:35 | 30.04266 | -85.75562 | 5495 ft | 164 kts | 174° |
| 2026-04-22 00:35 | 30.03132 | -85.75419 | 5495 ft | 164 kts | 174° |
| 2026-04-22 00:36 | 30.01995 | -85.75276 | 5495 ft | 164 kts | 174° |
| 2026-04-22 00:36 | 30.00870 | -85.75133 | 5495 ft | 164 kts | 174° |
| 2026-04-22 00:36 | 29.99735 | -85.74990 | 5495 ft | 164 kts | 174° |
| 2026-04-22 00:36 | 29.98600 | -85.74847 | 5495 ft | 164 kts | 174° |
| 2026-04-22 00:37 | 29.97464 | -85.74703 | 5495 ft | 164 kts | 174° |
| 2026-04-22 00:37 | 29.96328 | -85.74560 | 5495 ft | 164 kts | 174° |
| 2026-04-22 00:37 | 29.95198 | -85.74418 | 5495 ft | 164 kts | 174° |
| 2026-04-22 00:37 | 29.94059 | -85.74274 | 5495 ft | 164 kts | 174° |
| 2026-04-22 00:38 | 29.92924 | -85.74131 | 5495 ft | 164 kts | 174° |
| 2026-04-22 00:38 | 29.91792 | -85.73989 | 5495 ft | 164 kts | 174° |
| 2026-04-22 00:38 | 29.90656 | -85.73845 | 5495 ft | 164 kts | 174° |
| 2026-04-22 00:38 | 29.89518 | -85.73702 | 5495 ft | 164 kts | 174° |
| 2026-04-22 00:39 | 29.88384 | -85.73560 | 5495 ft | 164 kts | 174° |
| 2026-04-22 00:39 | 29.87248 | -85.73416 | 5495 ft | 164 kts | 174° |
| 2026-04-22 00:39 | 29.86110 | -85.73273 | 5495 ft | 164 kts | 174° |
| 2026-04-22 00:39 | 29.84989 | -85.73132 | 5495 ft | 164 kts | 174° |
| 2026-04-22 00:40 | 29.83839 | -85.72987 | 5495 ft | 164 kts | 174° |
| 2026-04-22 00:40 | 29.82705 | -85.72845 | 5495 ft | 164 kts | 174° |
| 2026-04-22 00:40 | 29.81569 | -85.72702 | 5495 ft | 164 kts | 174° |
| 2026-04-22 00:40 | 29.80449 | -85.72561 | 5495 ft | 164 kts | 174° |
| 2026-04-22 00:41 | 29.79311 | -85.72418 | 5495 ft | 164 kts | 174° |
| 2026-04-22 00:41 | 29.78175 | -85.72276 | 5495 ft | 164 kts | 174° |
| 2026-04-22 00:41 | 29.77042 | -85.72133 | 5495 ft | 164 kts | 174° |
| 2026-04-22 00:41 | 29.75908 | -85.71991 | 5495 ft | 164 kts | 174° |
| 2026-04-22 00:42 | 29.74769 | -85.71848 | 5495 ft | 164 kts | 174° |
| 2026-04-22 00:42 | 29.73634 | -85.71705 | 5495 ft | 164 kts | 174° |
| 2026-04-22 00:42 | 29.72498 | -85.71563 | 5495 ft | 164 kts | 174° |
| 2026-04-22 00:42 | 29.71360 | -85.71420 | 5495 ft | 164 kts | 174° |
| 2026-04-22 00:43 | 29.70225 | -85.71277 | 5495 ft | 164 kts | 174° |
| 2026-04-22 00:43 | 29.69089 | -85.71135 | 5495 ft | 164 kts | 174° |
| 2026-04-22 00:43 | 29.67952 | -85.70992 | 5495 ft | 164 kts | 174° |
| 2026-04-22 00:43 | 29.66816 | -85.70850 | 5495 ft | 164 kts | 174° |
| 2026-04-22 00:44 | 29.65695 | -85.70709 | 5496 ft | 164 kts | 174° |
| 2026-04-22 00:44 | 29.64546 | -85.70566 | 5495 ft | 164 kts | 174° |
| 2026-04-22 00:44 | 29.63425 | -85.70425 | 5495 ft | 164 kts | 174° |
| 2026-04-22 00:44 | 29.62287 | -85.70282 | 5495 ft | 164 kts | 174° |
| 2026-04-22 00:45 | 29.61151 | -85.70140 | 5495 ft | 164 kts | 174° |
| 2026-04-22 00:45 | 29.60015 | -85.69998 | 5495 ft | 164 kts | 174° |
| 2026-04-22 00:45 | 29.58876 | -85.69855 | 5496 ft | 164 kts | 174° |
| 2026-04-22 00:45 | 29.57741 | -85.69713 | 5495 ft | 164 kts | 174° |
| 2026-04-22 00:46 | 29.56602 | -85.69570 | 5496 ft | 164 kts | 174° |
| 2026-04-22 00:46 | 29.55468 | -85.69429 | 5496 ft | 164 kts | 174° |
| 2026-04-22 00:46 | 29.54331 | -85.69287 | 5495 ft | 164 kts | 174° |
| 2026-04-22 00:46 | 29.53198 | -85.69145 | 5496 ft | 164 kts | 174° |
| 2026-04-22 00:47 | 29.52063 | -85.69003 | 5496 ft | 164 kts | 174° |
| 2026-04-22 00:47 | 29.50925 | -85.68861 | 5496 ft | 164 kts | 174° |
| 2026-04-22 00:47 | 29.49789 | -85.68719 | 5496 ft | 164 kts | 174° |
| 2026-04-22 00:47 | 29.48654 | -85.68577 | 5496 ft | 164 kts | 174° |
| 2026-04-22 00:48 | 29.47516 | -85.68435 | 5496 ft | 164 kts | 174° |
| 2026-04-22 00:48 | 29.46382 | -85.68293 | 5496 ft | 164 kts | 174° |
| 2026-04-22 00:48 | 29.45245 | -85.68152 | 5496 ft | 164 kts | 174° |
| 2026-04-22 00:48 | 29.44108 | -85.68010 | 5496 ft | 164 kts | 174° |
| 2026-04-22 00:49 | 29.42972 | -85.67867 | 5496 ft | 164 kts | 174° |
| 2026-04-22 00:49 | 29.41847 | -85.67728 | 5496 ft | 164 kts | 174° |
| 2026-04-22 00:49 | 29.40711 | -85.67586 | 5496 ft | 164 kts | 174° |
| 2026-04-22 00:49 | 29.39573 | -85.67444 | 5496 ft | 164 kts | 174° |
| 2026-04-22 00:50 | 29.38438 | -85.67303 | 5496 ft | 164 kts | 174° |
| 2026-04-22 00:50 | 29.37302 | -85.67161 | 5496 ft | 164 kts | 174° |
| 2026-04-22 00:50 | 29.36164 | -85.67019 | 5496 ft | 164 kts | 174° |
| 2026-04-22 00:50 | 29.35032 | -85.66844 | 5494 ft | 165 kts | 165° |
| 2026-04-22 00:51 | 29.34049 | -85.66181 | 5490 ft | 165 kts | 137° |
| 2026-04-22 00:51 | 29.33430 | -85.65086 | 5491 ft | 166 kts | 110° |
| 2026-04-22 00:51 | 29.33285 | -85.63783 | 5494 ft | 166 kts | 90° |
| 2026-04-22 00:51 | 29.33270 | -85.62460 | 5495 ft | 166 kts | 91° |
| 2026-04-22 00:52 | 29.33248 | -85.61141 | 5496 ft | 166 kts | 91° |
| 2026-04-22 00:52 | 29.33228 | -85.59817 | 5497 ft | 166 kts | 91° |
| 2026-04-22 00:52 | 29.33207 | -85.58497 | 5497 ft | 166 kts | 91° |
| 2026-04-22 00:52 | 29.33185 | -85.57175 | 5497 ft | 166 kts | 91° |
| 2026-04-22 00:53 | 29.33163 | -85.55856 | 5498 ft | 166 kts | 91° |
| 2026-04-22 00:53 | 29.33141 | -85.54532 | 5498 ft | 166 kts | 91° |
| 2026-04-22 00:53 | 29.33120 | -85.53207 | 5498 ft | 166 kts | 91° |
| 2026-04-22 00:53 | 29.33099 | -85.51883 | 5498 ft | 166 kts | 91° |
| 2026-04-22 00:54 | 29.33077 | -85.50559 | 5498 ft | 166 kts | 91° |
| 2026-04-22 00:54 | 29.33058 | -85.49231 | 5498 ft | 166 kts | 91° |
| 2026-04-22 00:54 | 29.33037 | -85.47911 | 5498 ft | 166 kts | 91° |
| 2026-04-22 00:54 | 29.33014 | -85.46586 | 5498 ft | 166 kts | 91° |
| 2026-04-22 00:55 | 29.32992 | -85.45260 | 5498 ft | 166 kts | 91° |
| 2026-04-22 00:55 | 29.32970 | -85.43936 | 5498 ft | 166 kts | 91° |
| 2026-04-22 00:55 | 29.32925 | -85.41290 | 5498 ft | 166 kts | 91° |
| 2026-04-22 00:56 | 29.32903 | -85.39967 | 5498 ft | 166 kts | 91° |
| 2026-04-22 00:56 | 29.32879 | -85.38640 | 5498 ft | 166 kts | 91° |
| 2026-04-22 00:56 | 29.32857 | -85.37336 | 5498 ft | 166 kts | 91° |
| 2026-04-22 00:56 | 29.32834 | -85.35993 | 5498 ft | 166 kts | 91° |
| 2026-04-22 00:57 | 29.32811 | -85.34687 | 5498 ft | 166 kts | 91° |
| 2026-04-22 00:57 | 29.32788 | -85.33362 | 5498 ft | 166 kts | 91° |
| 2026-04-22 00:57 | 29.32764 | -85.32038 | 5498 ft | 166 kts | 91° |
| 2026-04-22 00:57 | 29.32741 | -85.30717 | 5498 ft | 166 kts | 91° |
| 2026-04-22 00:58 | 29.32717 | -85.29391 | 5498 ft | 166 kts | 91° |
| 2026-04-22 00:58 | 29.32693 | -85.28071 | 5498 ft | 166 kts | 91° |
| 2026-04-22 00:58 | 29.32669 | -85.26743 | 5498 ft | 166 kts | 91° |
| 2026-04-22 00:58 | 29.32646 | -85.25421 | 5498 ft | 166 kts | 91° |
| 2026-04-22 00:59 | 29.32621 | -85.24096 | 5498 ft | 166 kts | 91° |
| 2026-04-22 00:59 | 29.32596 | -85.22776 | 5498 ft | 166 kts | 91° |
| 2026-04-22 00:59 | 29.32572 | -85.21451 | 5498 ft | 166 kts | 91° |
| 2026-04-22 00:59 | 29.32548 | -85.20127 | 5498 ft | 166 kts | 91° |
| 2026-04-22 01:00 | 29.32523 | -85.18807 | 5499 ft | 166 kts | 91° |
| 2026-04-22 01:00 | 29.32498 | -85.17481 | 5499 ft | 166 kts | 91° |
| 2026-04-22 01:00 | 29.32473 | -85.16158 | 5498 ft | 166 kts | 91° |
| 2026-04-22 01:00 | 29.32448 | -85.14832 | 5499 ft | 166 kts | 91° |
| 2026-04-22 01:01 | 29.32423 | -85.13506 | 5499 ft | 166 kts | 91° |
| 2026-04-22 01:01 | 29.32397 | -85.12183 | 5499 ft | 166 kts | 91° |
| 2026-04-22 01:01 | 29.32372 | -85.10860 | 5499 ft | 166 kts | 91° |
| 2026-04-22 01:01 | 29.32346 | -85.09532 | 5499 ft | 166 kts | 91° |
| 2026-04-22 01:02 | 29.32320 | -85.08210 | 5499 ft | 166 kts | 91° |
| 2026-04-22 01:02 | 29.32294 | -85.06889 | 5499 ft | 166 kts | 91° |
| 2026-04-22 01:02 | 29.32269 | -85.05565 | 5499 ft | 166 kts | 91° |
| 2026-04-22 01:02 | 29.32242 | -85.04241 | 5499 ft | 166 kts | 91° |
| 2026-04-22 01:03 | 29.32216 | -85.02915 | 5499 ft | 166 kts | 91° |
| 2026-04-22 01:03 | 29.32190 | -85.01607 | 5499 ft | 166 kts | 91° |
| 2026-04-22 01:03 | 29.32163 | -85.00281 | 5499 ft | 166 kts | 91° |
| 2026-04-22 01:03 | 29.32136 | -84.98940 | 5499 ft | 166 kts | 91° |
| 2026-04-22 01:04 | 29.32110 | -84.97633 | 5499 ft | 166 kts | 91° |
| 2026-04-22 01:04 | 29.32083 | -84.96309 | 5499 ft | 166 kts | 91° |
| 2026-04-22 01:04 | 29.32056 | -84.94989 | 5499 ft | 166 kts | 91° |
| 2026-04-22 01:04 | 29.32029 | -84.93661 | 5499 ft | 166 kts | 91° |
| 2026-04-22 01:05 | 29.32001 | -84.92337 | 5499 ft | 166 kts | 91° |
| 2026-04-22 01:05 | 29.31974 | -84.91013 | 5499 ft | 166 kts | 91° |
| 2026-04-22 01:05 | 29.31947 | -84.89687 | 5499 ft | 166 kts | 91° |
| 2026-04-22 01:05 | 29.31919 | -84.88366 | 5499 ft | 166 kts | 91° |
| 2026-04-22 01:06 | 29.31891 | -84.87039 | 5499 ft | 166 kts | 91° |
| 2026-04-22 01:06 | 29.31863 | -84.85715 | 5499 ft | 166 kts | 91° |
| 2026-04-22 01:06 | 29.31835 | -84.84392 | 5499 ft | 166 kts | 91° |
| 2026-04-22 01:06 | 29.31806 | -84.83070 | 5499 ft | 166 kts | 91° |
| 2026-04-22 01:07 | 29.31779 | -84.81745 | 5499 ft | 166 kts | 91° |
| 2026-04-22 01:07 | 29.31750 | -84.80421 | 5499 ft | 166 kts | 91° |
| 2026-04-22 01:07 | 29.31721 | -84.79097 | 5499 ft | 166 kts | 91° |
| 2026-04-22 01:07 | 29.31692 | -84.77769 | 5499 ft | 166 kts | 91° |
| 2026-04-22 01:08 | 29.31663 | -84.76447 | 5499 ft | 166 kts | 91° |
| 2026-04-22 01:08 | 29.31634 | -84.75124 | 5499 ft | 166 kts | 91° |
| 2026-04-22 01:08 | 29.31605 | -84.73799 | 5499 ft | 166 kts | 91° |
| 2026-04-22 01:08 | 29.31586 | -84.72923 | 5499 ft | 166 kts | 91° |
| 2026-04-22 01:09 | 29.31557 | -84.71600 | 5499 ft | 166 kts | 91° |
| 2026-04-22 01:09 | 29.31527 | -84.70277 | 5499 ft | 166 kts | 91° |
| 2026-04-22 01:09 | 29.31497 | -84.68949 | 5499 ft | 166 kts | 91° |
| 2026-04-22 01:09 | 29.31468 | -84.67628 | 5499 ft | 166 kts | 91° |
| 2026-04-22 01:10 | 29.31438 | -84.66298 | 5499 ft | 166 kts | 91° |
| 2026-04-22 01:10 | 29.31407 | -84.64978 | 5499 ft | 166 kts | 91° |
| 2026-04-22 01:10 | 29.31378 | -84.63652 | 5499 ft | 166 kts | 91° |
| 2026-04-22 01:10 | 29.31347 | -84.62327 | 5499 ft | 166 kts | 91° |
| 2026-04-22 01:11 | 29.31317 | -84.61005 | 5499 ft | 166 kts | 91° |
| 2026-04-22 01:11 | 29.31287 | -84.59697 | 5499 ft | 166 kts | 91° |
| 2026-04-22 01:11 | 29.31256 | -84.58374 | 5499 ft | 166 kts | 91° |
| 2026-04-22 01:11 | 29.31225 | -84.57046 | 5499 ft | 166 kts | 91° |
| 2026-04-22 01:12 | 29.31194 | -84.55725 | 5499 ft | 166 kts | 91° |
| 2026-04-22 01:12 | 29.31163 | -84.54399 | 5499 ft | 166 kts | 91° |
| 2026-04-22 01:12 | 29.31132 | -84.53075 | 5499 ft | 166 kts | 91° |
| 2026-04-22 01:12 | 29.31101 | -84.51753 | 5499 ft | 166 kts | 91° |
| 2026-04-22 01:13 | 29.31069 | -84.50429 | 5499 ft | 166 kts | 91° |
| 2026-04-22 01:13 | 29.31037 | -84.49103 | 5499 ft | 166 kts | 91° |
| 2026-04-22 01:13 | 29.31006 | -84.47777 | 5499 ft | 166 kts | 91° |
| 2026-04-22 01:13 | 29.30974 | -84.46454 | 5499 ft | 166 kts | 91° |
| 2026-04-22 01:14 | 29.31124 | -84.45165 | 5497 ft | 166 kts | 75° |
| 2026-04-22 01:14 | 29.31408 | -84.43887 | 5497 ft | 166 kts | 76° |
| 2026-04-22 01:14 | 29.31678 | -84.42599 | 5498 ft | 166 kts | 76° |
| 2026-04-22 01:14 | 29.31947 | -84.41311 | 5498 ft | 166 kts | 76° |
| 2026-04-22 01:15 | 29.32221 | -84.40007 | 5498 ft | 166 kts | 76° |
| 2026-04-22 01:15 | 29.32489 | -84.38739 | 5498 ft | 166 kts | 76° |
| 2026-04-22 01:15 | 29.32760 | -84.37449 | 5498 ft | 166 kts | 76° |
| 2026-04-22 01:15 | 29.33029 | -84.36166 | 5498 ft | 166 kts | 76° |
| 2026-04-22 01:16 | 29.33301 | -84.34876 | 5498 ft | 166 kts | 76° |
| 2026-04-22 01:16 | 29.33571 | -84.33589 | 5498 ft | 166 kts | 76° |
| 2026-04-22 01:16 | 29.33840 | -84.32302 | 5498 ft | 166 kts | 76° |
| 2026-04-22 01:16 | 29.34111 | -84.31015 | 5498 ft | 166 kts | 76° |
| 2026-04-22 01:17 | 29.34380 | -84.29728 | 5498 ft | 166 kts | 76° |
| 2026-04-22 01:17 | 29.34650 | -84.28443 | 5498 ft | 166 kts | 76° |
| 2026-04-22 01:17 | 29.34921 | -84.27152 | 5498 ft | 166 kts | 76° |
| 2026-04-22 01:17 | 29.35190 | -84.25864 | 5498 ft | 166 kts | 76° |
| 2026-04-22 01:18 | 29.35459 | -84.24575 | 5498 ft | 166 kts | 76° |
| 2026-04-22 01:18 | 29.35729 | -84.23288 | 5498 ft | 166 kts | 76° |
| 2026-04-22 01:18 | 29.35998 | -84.21999 | 5498 ft | 166 kts | 76° |
| 2026-04-22 01:18 | 29.36266 | -84.20714 | 5498 ft | 166 kts | 76° |
| 2026-04-22 01:19 | 29.36536 | -84.19425 | 5499 ft | 166 kts | 76° |
| 2026-04-22 01:19 | 29.36804 | -84.18138 | 5499 ft | 166 kts | 76° |
| 2026-04-22 01:19 | 29.37072 | -84.16853 | 5499 ft | 166 kts | 76° |
| 2026-04-22 01:19 | 29.37342 | -84.15562 | 5499 ft | 166 kts | 76° |
| 2026-04-22 01:20 | 29.37609 | -84.14275 | 5499 ft | 166 kts | 76° |
| 2026-04-22 01:20 | 29.37878 | -84.12987 | 5499 ft | 166 kts | 76° |
| 2026-04-22 01:20 | 29.38147 | -84.11697 | 5499 ft | 166 kts | 76° |
| 2026-04-22 01:20 | 29.38411 | -84.10424 | 5499 ft | 166 kts | 76° |
| 2026-04-22 01:21 | 29.38678 | -84.09139 | 5499 ft | 166 kts | 76° |
| 2026-04-22 01:21 | 29.38947 | -84.07848 | 5499 ft | 166 kts | 76° |
| 2026-04-22 01:21 | 29.39214 | -84.06562 | 5499 ft | 166 kts | 76° |
| 2026-04-22 01:21 | 29.39481 | -84.05274 | 5499 ft | 166 kts | 76° |
| 2026-04-22 01:22 | 29.39749 | -84.03984 | 5499 ft | 166 kts | 76° |
| 2026-04-22 01:22 | 29.40017 | -84.02692 | 5499 ft | 166 kts | 76° |
| 2026-04-22 01:22 | 29.40284 | -84.01401 | 5499 ft | 166 kts | 76° |
| 2026-04-22 01:22 | 29.40552 | -84.00112 | 5499 ft | 166 kts | 76° |
| 2026-04-22 01:23 | 29.40819 | -83.98821 | 5499 ft | 166 kts | 76° |
| 2026-04-22 01:23 | 29.41086 | -83.97529 | 5499 ft | 166 kts | 76° |
| 2026-04-22 01:23 | 29.41353 | -83.96244 | 5499 ft | 166 kts | 76° |
| 2026-04-22 01:23 | 29.41619 | -83.94955 | 5499 ft | 166 kts | 76° |
| 2026-04-22 01:24 | 29.41886 | -83.93663 | 5499 ft | 166 kts | 76° |
| 2026-04-22 01:24 | 29.42152 | -83.92376 | 5499 ft | 166 kts | 76° |
| 2026-04-22 01:24 | 29.42418 | -83.91086 | 5499 ft | 166 kts | 76° |
| 2026-04-22 01:24 | 29.42684 | -83.89796 | 5499 ft | 166 kts | 76° |
| 2026-04-22 01:25 | 29.42947 | -83.88523 | 5499 ft | 166 kts | 76° |
| 2026-04-22 01:25 | 29.43212 | -83.87233 | 5499 ft | 166 kts | 76° |
| 2026-04-22 01:25 | 29.43478 | -83.85944 | 5499 ft | 166 kts | 76° |
| 2026-04-22 01:25 | 29.43743 | -83.84659 | 5499 ft | 166 kts | 76° |
| 2026-04-22 01:26 | 29.44008 | -83.83366 | 5499 ft | 166 kts | 76° |
| 2026-04-22 01:26 | 29.44274 | -83.82077 | 5499 ft | 166 kts | 77° |
| 2026-04-22 01:26 | 29.44539 | -83.80788 | 5499 ft | 166 kts | 76° |
| 2026-04-22 01:26 | 29.44803 | -83.79500 | 5499 ft | 166 kts | 76° |
| 2026-04-22 01:27 | 29.45068 | -83.78211 | 5499 ft | 166 kts | 77° |
| 2026-04-22 01:27 | 29.45333 | -83.76921 | 5499 ft | 166 kts | 76° |
| 2026-04-22 01:27 | 29.45598 | -83.75627 | 5499 ft | 166 kts | 76° |
| 2026-04-22 01:27 | 29.45863 | -83.74337 | 5499 ft | 166 kts | 77° |
| 2026-04-22 01:28 | 29.46128 | -83.73046 | 5499 ft | 166 kts | 76° |
| 2026-04-22 01:28 | 29.46391 | -83.71757 | 5499 ft | 166 kts | 76° |
| 2026-04-22 01:28 | 29.46656 | -83.70467 | 5499 ft | 166 kts | 77° |
| 2026-04-22 01:28 | 29.46920 | -83.69175 | 5499 ft | 166 kts | 76° |
| 2026-04-22 01:29 | 29.47184 | -83.67883 | 5499 ft | 166 kts | 77° |
| 2026-04-22 01:29 | 29.47447 | -83.66597 | 5499 ft | 166 kts | 77° |
| 2026-04-22 01:29 | 29.47711 | -83.65305 | 5499 ft | 166 kts | 76° |
| 2026-04-22 01:29 | 29.47974 | -83.64015 | 5499 ft | 166 kts | 77° |
| 2026-04-22 01:30 | 29.48239 | -83.62723 | 5499 ft | 166 kts | 77° |
| 2026-04-22 01:30 | 29.48502 | -83.61431 | 5499 ft | 166 kts | 76° |
| 2026-04-22 01:30 | 29.48762 | -83.60154 | 5499 ft | 166 kts | 77° |
| 2026-04-22 01:30 | 29.49029 | -83.58848 | 5499 ft | 166 kts | 77° |
| 2026-04-22 01:31 | 29.49288 | -83.57576 | 5499 ft | 166 kts | 77° |
| 2026-04-22 01:31 | 29.49550 | -83.56282 | 5499 ft | 166 kts | 77° |
| 2026-04-22 01:31 | 29.49813 | -83.54993 | 5499 ft | 166 kts | 77° |
| 2026-04-22 01:31 | 29.50076 | -83.53700 | 5499 ft | 166 kts | 77° |
| 2026-04-22 01:32 | 29.50338 | -83.52409 | 5499 ft | 166 kts | 77° |
| 2026-04-22 01:32 | 29.50601 | -83.51116 | 5499 ft | 166 kts | 77° |
| 2026-04-22 01:32 | 29.50863 | -83.49826 | 5499 ft | 166 kts | 77° |
| 2026-04-22 01:32 | 29.51125 | -83.48534 | 5499 ft | 166 kts | 77° |
| 2026-04-22 01:33 | 29.51387 | -83.47242 | 5499 ft | 166 kts | 77° |
| 2026-04-22 01:33 | 29.51649 | -83.45949 | 5499 ft | 166 kts | 77° |
| 2026-04-22 01:33 | 29.51910 | -83.44658 | 5499 ft | 166 kts | 77° |
| 2026-04-22 01:33 | 29.52172 | -83.43367 | 5499 ft | 166 kts | 77° |
| 2026-04-22 01:34 | 29.52428 | -83.42093 | 5498 ft | 162 kts | 77° |
| 2026-04-22 01:34 | 29.52682 | -83.40844 | 5494 ft | 159 kts | 77° |
| 2026-04-22 01:34 | 29.52931 | -83.39614 | 5491 ft | 158 kts | 77° |
| 2026-04-22 01:34 | 29.53179 | -83.38386 | 5492 ft | 158 kts | 77° |
| 2026-04-22 01:35 | 29.53424 | -83.37163 | 5490 ft | 156 kts | 76° |
| 2026-04-22 01:35 | 29.53672 | -83.35946 | 5495 ft | 156 kts | 76° |
| 2026-04-22 01:35 | 29.53919 | -83.34731 | 5491 ft | 156 kts | 77° |
| 2026-04-22 01:35 | 29.54161 | -83.33518 | 5491 ft | 155 kts | 77° |
| 2026-04-22 01:36 | 29.54405 | -83.32310 | 5490 ft | 155 kts | 77° |
| 2026-04-22 01:36 | 29.54645 | -83.31107 | 5492 ft | 155 kts | 77° |
| 2026-04-22 01:36 | 29.54890 | -83.29900 | 5492 ft | 155 kts | 77° |
| 2026-04-22 01:36 | 29.55133 | -83.28699 | 5491 ft | 154 kts | 77° |
| 2026-04-22 01:37 | 29.55374 | -83.27498 | 5491 ft | 154 kts | 77° |
| 2026-04-22 01:37 | 29.55612 | -83.26313 | 5496 ft | 155 kts | 77° |
| 2026-04-22 01:37 | 29.55853 | -83.25098 | 5492 ft | 156 kts | 76° |
| 2026-04-22 01:37 | 29.56100 | -83.23886 | 5492 ft | 155 kts | 77° |
| 2026-04-22 01:38 | 29.56343 | -83.22679 | 5492 ft | 155 kts | 77° |
| 2026-04-22 01:38 | 29.56583 | -83.21475 | 5492 ft | 155 kts | 77° |
| 2026-04-22 01:38 | 29.56825 | -83.20271 | 5498 ft | 155 kts | 77° |
| 2026-04-22 01:38 | 29.57068 | -83.19059 | 5494 ft | 157 kts | 77° |
| 2026-04-22 01:39 | 29.57311 | -83.17840 | 5493 ft | 156 kts | 77° |
| 2026-04-22 01:39 | 29.57555 | -83.16627 | 5493 ft | 156 kts | 77° |
| 2026-04-22 01:39 | 29.57797 | -83.15414 | 5493 ft | 156 kts | 77° |
| 2026-04-22 01:39 | 29.58040 | -83.14201 | 5493 ft | 155 kts | 77° |
| 2026-04-22 01:40 | 29.58281 | -83.12997 | 5492 ft | 155 kts | 77° |
| 2026-04-22 01:40 | 29.58523 | -83.11792 | 5492 ft | 155 kts | 77° |
| 2026-04-22 01:40 | 29.58762 | -83.10585 | 5491 ft | 154 kts | 77° |
| 2026-04-22 01:40 | 29.59002 | -83.09380 | 5502 ft | 156 kts | 77° |
| 2026-04-22 01:41 | 29.59247 | -83.08154 | 5494 ft | 159 kts | 77° |
| 2026-04-22 01:41 | 29.59495 | -83.06920 | 5501 ft | 159 kts | 76° |
| 2026-04-22 01:41 | 29.59543 | -83.05674 | 5492 ft | 157 kts | 103° |
| 2026-04-22 01:41 | 29.59080 | -83.04549 | 5493 ft | 156 kts | 129° |
| 2026-04-22 01:42 | 29.58242 | -83.03787 | 5498 ft | 155 kts | 152° |
| 2026-04-22 01:42 | 29.57295 | -83.03178 | 5498 ft | 156 kts | 150° |
| 2026-04-22 01:42 | 29.56350 | -83.02557 | 5496 ft | 156 kts | 151° |
| 2026-04-22 01:42 | 29.55402 | -83.01937 | 5498 ft | 156 kts | 151° |
| 2026-04-22 01:43 | 29.54477 | -83.01332 | 5498 ft | 155 kts | 151° |
| 2026-04-22 01:43 | 29.53541 | -83.00720 | 5496 ft | 154 kts | 151° |
| 2026-04-22 01:43 | 29.52611 | -83.00113 | 5495 ft | 154 kts | 151° |
| 2026-04-22 01:43 | 29.51676 | -82.99502 | 5495 ft | 154 kts | 151° |
| 2026-04-22 01:44 | 29.50745 | -82.98897 | 5495 ft | 154 kts | 151° |
| 2026-04-22 01:44 | 29.49814 | -82.98287 | 5495 ft | 154 kts | 151° |
| 2026-04-22 01:44 | 29.48885 | -82.97679 | 5494 ft | 154 kts | 151° |
| 2026-04-22 01:44 | 29.47954 | -82.97072 | 5494 ft | 153 kts | 151° |
| 2026-04-22 01:45 | 29.47025 | -82.96466 | 5494 ft | 153 kts | 151° |
| 2026-04-22 01:45 | 29.46111 | -82.95870 | 5494 ft | 153 kts | 151° |
| 2026-04-22 01:45 | 29.45183 | -82.95265 | 5493 ft | 153 kts | 151° |
| 2026-04-22 01:45 | 29.44257 | -82.94660 | 5498 ft | 154 kts | 151° |
| 2026-04-22 01:46 | 29.43311 | -82.94045 | 5503 ft | 158 kts | 151° |
| 2026-04-22 01:46 | 29.42351 | -82.93419 | 5505 ft | 159 kts | 151° |
| 2026-04-22 01:46 | 29.41392 | -82.92793 | 5500 ft | 158 kts | 151° |
| 2026-04-22 01:46 | 29.40441 | -82.92173 | 5502 ft | 157 kts | 151° |
| 2026-04-22 01:47 | 29.39492 | -82.91554 | 5506 ft | 157 kts | 151° |
| 2026-04-22 01:47 | 29.38533 | -82.90931 | 5508 ft | 159 kts | 151° |
| 2026-04-22 01:47 | 29.37575 | -82.90306 | 5502 ft | 158 kts | 151° |
| 2026-04-22 01:47 | 29.36624 | -82.89686 | 5504 ft | 157 kts | 151° |
| 2026-04-22 01:48 | 29.35673 | -82.89070 | 5506 ft | 158 kts | 151° |
| 2026-04-22 01:48 | 29.34713 | -82.88445 | 5507 ft | 160 kts | 151° |
| 2026-04-22 01:48 | 29.33754 | -82.87819 | 5501 ft | 157 kts | 151° |
| 2026-04-22 01:48 | 29.32807 | -82.87203 | 5501 ft | 156 kts | 151° |
| 2026-04-22 01:49 | 29.31868 | -82.86592 | 5497 ft | 155 kts | 151° |
| 2026-04-22 01:49 | 29.30931 | -82.85984 | 5496 ft | 154 kts | 151° |
| 2026-04-22 01:49 | 29.30006 | -82.85383 | 5494 ft | 154 kts | 151° |
| 2026-04-22 01:49 | 29.29075 | -82.84778 | 5494 ft | 154 kts | 151° |
| 2026-04-22 01:50 | 29.28147 | -82.84174 | 5493 ft | 153 kts | 151° |
| 2026-04-22 01:50 | 29.27216 | -82.83570 | 5493 ft | 153 kts | 151° |
| 2026-04-22 01:50 | 29.26287 | -82.82967 | 5492 ft | 153 kts | 151° |
| 2026-04-22 01:50 | 29.25362 | -82.82365 | 5492 ft | 153 kts | 151° |
| 2026-04-22 01:51 | 29.24433 | -82.81763 | 5492 ft | 153 kts | 151° |
| 2026-04-22 01:51 | 29.23506 | -82.81161 | 5492 ft | 153 kts | 151° |
| 2026-04-22 01:51 | 29.22578 | -82.80559 | 5492 ft | 153 kts | 151° |
| 2026-04-22 01:51 | 29.21649 | -82.79956 | 5492 ft | 153 kts | 151° |
| 2026-04-22 01:52 | 29.20718 | -82.79352 | 5492 ft | 154 kts | 151° |
| 2026-04-22 01:52 | 29.19789 | -82.78749 | 5496 ft | 153 kts | 151° |
| 2026-04-22 01:52 | 29.18851 | -82.78141 | 5495 ft | 156 kts | 151° |
| 2026-04-22 01:52 | 29.17906 | -82.77530 | 5497 ft | 156 kts | 151° |
| 2026-04-22 01:53 | 29.16957 | -82.76912 | 5497 ft | 157 kts | 151° |
| 2026-04-22 01:53 | 29.16007 | -82.76298 | 5498 ft | 156 kts | 151° |
| 2026-04-22 01:53 | 29.15066 | -82.75689 | 5497 ft | 155 kts | 151° |
| 2026-04-22 01:53 | 29.14140 | -82.75088 | 5496 ft | 154 kts | 151° |
| 2026-04-22 01:54 | 29.13208 | -82.74485 | 5495 ft | 154 kts | 151° |
| 2026-04-22 01:54 | 29.12274 | -82.73880 | 5494 ft | 154 kts | 151° |
| 2026-04-22 01:54 | 29.11655 | -82.73479 | 5494 ft | 154 kts | 151° |
| 2026-04-22 01:54 | 29.10724 | -82.72877 | 5496 ft | 154 kts | 151° |
| 2026-04-22 01:55 | 29.09789 | -82.72272 | 5494 ft | 154 kts | 151° |
| 2026-04-22 01:55 | 29.08858 | -82.71670 | 5493 ft | 154 kts | 151° |
| 2026-04-22 01:55 | 29.07621 | -82.70869 | 5497 ft | 155 kts | 151° |
| 2026-04-22 01:55 | 29.06989 | -82.70461 | 5494 ft | 155 kts | 151° |
| 2026-04-22 01:56 | 29.06060 | -82.69860 | 5495 ft | 154 kts | 151° |
| 2026-04-22 01:56 | 29.05125 | -82.69256 | 5495 ft | 154 kts | 151° |
| 2026-04-22 01:56 | 29.04193 | -82.68653 | 5494 ft | 154 kts | 151° |
| 2026-04-22 01:56 | 29.03260 | -82.68051 | 5494 ft | 154 kts | 151° |
| 2026-04-22 01:57 | 29.02325 | -82.67449 | 5494 ft | 154 kts | 151° |
| 2026-04-22 01:57 | 29.01396 | -82.66845 | 5494 ft | 154 kts | 151° |
| 2026-04-22 01:57 | 29.00463 | -82.66243 | 5493 ft | 154 kts | 151° |
| 2026-04-22 01:57 | 28.99525 | -82.65638 | 5493 ft | 155 kts | 151° |
| 2026-04-22 01:58 | 28.98592 | -82.65036 | 5500 ft | 154 kts | 152° |
| 2026-04-22 01:58 | 28.97646 | -82.64428 | 5503 ft | 158 kts | 151° |
| 2026-04-22 01:58 | 28.96682 | -82.63803 | 5500 ft | 159 kts | 151° |
| 2026-04-22 01:58 | 28.95717 | -82.63185 | 5510 ft | 160 kts | 152° |
| 2026-04-22 01:59 | 28.94752 | -82.62559 | 5504 ft | 159 kts | 151° |
| 2026-04-22 01:59 | 28.93788 | -82.61938 | 5507 ft | 159 kts | 151° |
| 2026-04-22 01:59 | 28.92829 | -82.61318 | 5498 ft | 158 kts | 151° |
| 2026-04-22 01:59 | 28.91876 | -82.60704 | 5497 ft | 157 kts | 151° |
| 2026-04-22 02:00 | 28.90925 | -82.60090 | 5505 ft | 158 kts | 151° |
| 2026-04-22 02:00 | 28.89969 | -82.59476 | 5503 ft | 157 kts | 151° |
| 2026-04-22 02:00 | 28.89020 | -82.58866 | 5496 ft | 159 kts | 151° |
| 2026-04-22 02:00 | 28.88059 | -82.58246 | 5501 ft | 159 kts | 151° |
| 2026-04-22 02:01 | 28.87081 | -82.57617 | 5500 ft | 159 kts | 151° |
| 2026-04-22 02:01 | 28.86230 | -82.56843 | 5495 ft | 160 kts | 135° |
| 2026-04-22 02:01 | 28.85450 | -82.55960 | 5495 ft | 157 kts | 136° |
| 2026-04-22 02:01 | 28.84661 | -82.55093 | 5495 ft | 158 kts | 136° |
| 2026-04-22 02:02 | 28.83875 | -82.54225 | 5495 ft | 157 kts | 136° |
| 2026-04-22 02:02 | 28.83088 | -82.53355 | 5498 ft | 158 kts | 136° |
| 2026-04-22 02:02 | 28.82300 | -82.52489 | 5496 ft | 156 kts | 137° |
| 2026-04-22 02:02 | 28.81515 | -82.51623 | 5499 ft | 157 kts | 136° |
| 2026-04-22 02:03 | 28.80731 | -82.50757 | 5492 ft | 156 kts | 136° |
| 2026-04-22 02:03 | 28.79951 | -82.49899 | 5495 ft | 156 kts | 136° |
| 2026-04-22 02:03 | 28.79156 | -82.49023 | 5502 ft | 162 kts | 136° |
| 2026-04-22 02:03 | 28.78334 | -82.48116 | 5506 ft | 166 kts | 136° |
| 2026-04-22 02:04 | 28.76658 | -82.46272 | 5508 ft | 168 kts | 136° |
| 2026-04-22 02:04 | 28.75815 | -82.45343 | 5511 ft | 169 kts | 136° |
| 2026-04-22 02:04 | 28.74960 | -82.44402 | 5466 ft | 173 kts | 136° |
| 2026-04-22 02:05 | 28.74086 | -82.43443 | 5365 ft | 174 kts | 136° |
| 2026-04-22 02:05 | 28.73217 | -82.42486 | 5268 ft | 173 kts | 136° |
| 2026-04-22 02:05 | 28.72361 | -82.41543 | 5167 ft | 173 kts | 136° |
| 2026-04-22 02:05 | 28.71483 | -82.40576 | 5068 ft | 174 kts | 136° |
| 2026-04-22 02:06 | 28.70626 | -82.39637 | 4969 ft | 173 kts | 136° |
| 2026-04-22 02:06 | 28.69766 | -82.38691 | 4874 ft | 173 kts | 136° |
| 2026-04-22 02:06 | 28.68900 | -82.37740 | 4769 ft | 172 kts | 136° |
| 2026-04-22 02:06 | 28.68039 | -82.36794 | 4675 ft | 172 kts | 136° |
| 2026-04-22 02:07 | 28.67168 | -82.35839 | 4575 ft | 174 kts | 136° |
| 2026-04-22 02:07 | 28.66300 | -82.34885 | 4471 ft | 173 kts | 136° |
| 2026-04-22 02:07 | 28.65431 | -82.33928 | 4384 ft | 174 kts | 136° |
| 2026-04-22 02:07 | 28.64563 | -82.32974 | 4271 ft | 173 kts | 136° |
| 2026-04-22 02:08 | 28.63687 | -82.32017 | 4172 ft | 176 kts | 136° |
| 2026-04-22 02:08 | 28.62812 | -82.31057 | 4075 ft | 174 kts | 136° |
| 2026-04-22 02:08 | 28.61948 | -82.30107 | 3973 ft | 173 kts | 136° |
| 2026-04-22 02:08 | 28.61086 | -82.29162 | 3872 ft | 171 kts | 136° |
| 2026-04-22 02:09 | 28.60225 | -82.28218 | 3772 ft | 172 kts | 136° |
| 2026-04-22 02:09 | 28.59361 | -82.27272 | 3685 ft | 173 kts | 137° |
| 2026-04-22 02:09 | 28.58487 | -82.26319 | 3572 ft | 173 kts | 136° |
| 2026-04-22 02:09 | 28.57629 | -82.25377 | 3472 ft | 172 kts | 136° |
| 2026-04-22 02:10 | 28.56766 | -82.24431 | 3372 ft | 172 kts | 136° |
| 2026-04-22 02:10 | 28.55913 | -82.23501 | 3273 ft | 165 kts | 136° |
| 2026-04-22 02:10 | 28.55101 | -82.22612 | 3178 ft | 158 kts | 136° |
| 2026-04-22 02:10 | 28.54329 | -82.21766 | 3054 ft | 150 kts | 136° |
| 2026-04-22 02:11 | 28.53589 | -82.20955 | 2942 ft | 145 kts | 136° |
| 2026-04-22 02:11 | 28.52872 | -82.20169 | 2837 ft | 141 kts | 136° |
| 2026-04-22 02:11 | 28.52170 | -82.19400 | 2729 ft | 139 kts | 136° |
| 2026-04-22 02:11 | 28.51471 | -82.18638 | 2636 ft | 140 kts | 136° |
| 2026-04-22 02:12 | 28.50760 | -82.17860 | 2543 ft | 142 kts | 137° |
| 2026-04-22 02:12 | 28.50053 | -82.17087 | 2457 ft | 140 kts | 137° |
| 2026-04-22 02:12 | 28.49327 | -82.16295 | 2359 ft | 149 kts | 137° |
| 2026-04-22 02:12 | 28.48583 | -82.15486 | 2246 ft | 145 kts | 136° |
| 2026-04-22 02:13 | 28.47869 | -82.14701 | 2141 ft | 141 kts | 136° |
| 2026-04-22 02:13 | 28.47168 | -82.13935 | 2037 ft | 138 kts | 136° |
| 2026-04-22 02:13 | 28.46488 | -82.13193 | 1935 ft | 137 kts | 137° |
| 2026-04-22 02:13 | 28.45798 | -82.12440 | 1834 ft | 138 kts | 137° |
| 2026-04-22 02:14 | 28.45101 | -82.11679 | 1732 ft | 138 kts | 136° |
| 2026-04-22 02:14 | 28.44408 | -82.10924 | 1632 ft | 138 kts | 137° |
| 2026-04-22 02:14 | 28.43715 | -82.10166 | 1532 ft | 138 kts | 136° |
| 2026-04-22 02:14 | 28.43016 | -82.09404 | 1435 ft | 141 kts | 137° |
| 2026-04-22 02:15 | 28.42313 | -82.08638 | 1337 ft | 140 kts | 137° |
| 2026-04-22 02:15 | 28.41609 | -82.07871 | 1240 ft | 141 kts | 137° |
| 2026-04-22 02:15 | 28.40911 | -82.07111 | 1208 ft | 137 kts | 137° |
| 2026-04-22 02:15 | 28.40243 | -82.06381 | 1196 ft | 128 kts | 137° |
| 2026-04-22 02:16 | 28.39634 | -82.05717 | 1187 ft | 114 kts | 137° |
| 2026-04-22 02:16 | 28.39095 | -82.05128 | 1189 ft | 104 kts | 137° |
| 2026-04-22 02:16 | 28.38577 | -82.04562 | 1190 ft | 100 kts | 137° |
| 2026-04-22 02:16 | 28.38092 | -82.04033 | 1188 ft | 97 kts | 137° |
| 2026-04-22 02:17 | 28.37612 | -82.03511 | 1188 ft | 95 kts | 137° |
| 2026-04-22 02:17 | 28.37137 | -82.02993 | 1193 ft | 97 kts | 136° |
| 2026-04-22 02:17 | 28.36627 | -82.02439 | 1206 ft | 105 kts | 137° |
| 2026-04-22 02:17 | 28.36086 | -82.01852 | 1212 ft | 110 kts | 136° |
| 2026-04-22 02:18 | 28.35530 | -82.01249 | 1211 ft | 110 kts | 137° |
| 2026-04-22 02:18 | 28.34984 | -82.00654 | 1208 ft | 107 kts | 137° |
| 2026-04-22 02:18 | 28.34454 | -82.00077 | 1204 ft | 104 kts | 137° |
| 2026-04-22 02:18 | 28.33933 | -81.99510 | 1199 ft | 103 kts | 137° |
| 2026-04-22 02:19 | 28.33423 | -81.98953 | 1192 ft | 101 kts | 137° |
| 2026-04-22 02:19 | 28.32921 | -81.98408 | 1190 ft | 99 kts | 137° |
| 2026-04-22 02:19 | 28.32429 | -81.97871 | 1189 ft | 97 kts | 137° |
| 2026-04-22 02:19 | 28.31936 | -81.97334 | 1193 ft | 101 kts | 137° |
| 2026-04-22 02:20 | 28.31424 | -81.96778 | 1197 ft | 102 kts | 136° |
| 2026-04-22 02:20 | 28.30904 | -81.96215 | 1203 ft | 104 kts | 137° |
| 2026-04-22 02:20 | 28.30378 | -81.95643 | 1209 ft | 105 kts | 137° |
| 2026-04-22 02:20 | 28.29819 | -81.95100 | 1204 ft | 106 kts | 158° |
| 2026-04-22 02:21 | 28.29091 | -81.95013 | 1207 ft | 106 kts | 176° |
| 2026-04-22 02:21 | 28.28337 | -81.94939 | 1208 ft | 114 kts | 176° |
| 2026-04-22 02:21 | 28.27555 | -81.94868 | 1206 ft | 113 kts | 176° |
| 2026-04-22 02:21 | 28.26749 | -81.94796 | 1201 ft | 115 kts | 176° |
| 2026-04-22 02:22 | 28.26042 | -81.94502 | 1195 ft | 112 kts | 133° |
| 2026-04-22 02:22 | 28.25625 | -81.93772 | 1193 ft | 111 kts | 121° |
| 2026-04-22 02:22 | 28.25221 | -81.93029 | 1193 ft | 111 kts | 122° |
| 2026-04-22 02:22 | 28.24813 | -81.92284 | 1202 ft | 112 kts | 122° |
| 2026-04-22 02:23 | 28.24406 | -81.91549 | 1193 ft | 108 kts | 123° |
| 2026-04-22 02:23 | 28.24014 | -81.90838 | 1199 ft | 103 kts | 122° |
| 2026-04-22 02:23 | 28.23647 | -81.90164 | 1190 ft | 98 kts | 122° |
| 2026-04-22 02:23 | 28.23518 | -81.89400 | 1187 ft | 102 kts | 92° |
| 2026-04-22 02:24 | 28.23365 | -81.88622 | 1197 ft | 104 kts | 121° |
| 2026-04-22 02:24 | 28.22855 | -81.88045 | 1208 ft | 106 kts | 136° |
| 2026-04-22 02:24 | 28.22310 | -81.87460 | 1203 ft | 109 kts | 139° |
| 2026-04-22 02:24 | 28.21749 | -81.86895 | 1204 ft | 106 kts | 139° |
| 2026-04-22 02:25 | 28.21201 | -81.86352 | 1208 ft | 106 kts | 140° |
| 2026-04-22 02:25 | 28.20639 | -81.85804 | 1205 ft | 107 kts | 139° |
| 2026-04-22 02:25 | 28.20077 | -81.85257 | 1204 ft | 105 kts | 140° |
| 2026-04-22 02:25 | 28.19523 | -81.84717 | 1207 ft | 106 kts | 140° |
| 2026-04-22 02:26 | 28.18962 | -81.84172 | 1209 ft | 107 kts | 140° |
| 2026-04-22 02:26 | 28.18393 | -81.83621 | 1211 ft | 108 kts | 140° |
| 2026-04-22 02:26 | 28.17830 | -81.83077 | 1207 ft | 109 kts | 140° |
| 2026-04-22 02:26 | 28.17253 | -81.82519 | 1209 ft | 109 kts | 140° |
| 2026-04-22 02:27 | 28.16682 | -81.81964 | 1204 ft | 107 kts | 140° |
| 2026-04-22 02:27 | 28.16126 | -81.81425 | 1202 ft | 104 kts | 140° |
| 2026-04-22 02:27 | 28.15478 | -81.81107 | 1196 ft | 104 kts | 182° |
| 2026-04-22 02:27 | 28.14796 | -81.81347 | 1196 ft | 103 kts | 208° |
| 2026-04-22 02:28 | 28.14155 | -81.81690 | 1195 ft | 101 kts | 206° |
| 2026-04-22 02:28 | 28.13524 | -81.82030 | 1189 ft | 99 kts | 206° |
| 2026-04-22 02:28 | 28.12921 | -81.82355 | 1189 ft | 93 kts | 206° |
| 2026-04-22 02:28 | 28.12326 | -81.82675 | 1194 ft | 98 kts | 207° |
| 2026-04-22 02:29 | 28.11688 | -81.83018 | 1207 ft | 105 kts | 206° |
| 2026-04-22 02:29 | 28.11018 | -81.83381 | 1212 ft | 106 kts | 206° |
| 2026-04-22 02:29 | 28.10450 | -81.83852 | 1203 ft | 100 kts | 238° |
| 2026-04-22 02:29 | 28.10264 | -81.84556 | 1201 ft | 87 kts | 261° |
| 2026-04-22 02:30 | 28.10146 | -81.85224 | 1194 ft | 89 kts | 259° |
| 2026-04-22 02:30 | 28.10029 | -81.85927 | 1201 ft | 95 kts | 259° |
| 2026-04-22 02:30 | 28.09906 | -81.86680 | 1209 ft | 100 kts | 259° |
| 2026-04-22 02:30 | 28.09779 | -81.87459 | 1209 ft | 101 kts | 259° |
| 2026-04-22 02:31 | 28.09647 | -81.88253 | 1207 ft | 106 kts | 259° |
| 2026-04-22 02:31 | 28.09513 | -81.89077 | 1205 ft | 103 kts | 259° |
| 2026-04-22 02:31 | 28.09384 | -81.89859 | 1203 ft | 100 kts | 259° |
| 2026-04-22 02:31 | 28.09288 | -81.90640 | 1209 ft | 101 kts | 264° |
| 2026-04-22 02:32 | 28.09208 | -81.91421 | 1201 ft | 100 kts | 263° |
| 2026-04-22 02:32 | 28.09122 | -81.92202 | 1205 ft | 101 kts | 264° |
| 2026-04-22 02:32 | 28.09039 | -81.92998 | 1201 ft | 102 kts | 264° |
| 2026-04-22 02:32 | 28.08949 | -81.93786 | 1204 ft | 101 kts | 260° |
| 2026-04-22 02:33 | 28.08859 | -81.94582 | 1205 ft | 102 kts | 262° |
| 2026-04-22 02:33 | 28.08741 | -81.95366 | 1204 ft | 100 kts | 259° |
| 2026-04-22 02:33 | 28.08616 | -81.96145 | 1199 ft | 100 kts | 257° |
| 2026-04-22 02:33 | 28.08380 | -81.96884 | 1200 ft | 100 kts | 247° |
| 2026-04-22 02:34 | 28.08077 | -81.97593 | 1200 ft | 100 kts | 244° |
| 2026-04-22 02:34 | 28.07766 | -81.98301 | 1200 ft | 100 kts | 240° |
| 2026-04-22 02:34 | 28.07400 | -81.98976 | 1199 ft | 101 kts | 234° |
| 2026-04-22 02:34 | 28.06977 | -81.99601 | 1200 ft | 101 kts | 233° |
| 2026-04-22 02:35 | 28.06552 | -82.00237 | 1202 ft | 101 kts | 233° |
| 2026-04-22 02:35 | 28.06131 | -82.00867 | 1199 ft | 100 kts | 233° |
| 2026-04-22 02:35 | 28.05712 | -82.01487 | 1198 ft | 99 kts | 233° |
| 2026-04-22 02:35 | 28.05111 | -82.01825 | 1192 ft | 102 kts | 180° |
| 2026-04-22 02:36 | 28.04412 | -82.01741 | 1197 ft | 102 kts | 175° |
| 2026-04-22 02:36 | 28.03706 | -82.01648 | 1194 ft | 102 kts | 174° |
| 2026-04-22 02:36 | 28.03008 | -82.01554 | 1218 ft | 102 kts | 174° |
| 2026-04-22 02:36 | 28.02306 | -82.01521 | 1213 ft | 102 kts | 190° |
| 2026-04-22 02:37 | 28.01702 | -82.01887 | 1223 ft | 99 kts | 225° |
| 2026-04-22 02:37 | 28.01199 | -82.02426 | 1220 ft | 100 kts | 221° |
| 2026-04-22 02:37 | 28.00758 | -82.03042 | 1184 ft | 99 kts | 234° |
| 2026-04-22 02:37 | 28.00303 | -82.03602 | 1104 ft | 98 kts | 213° |
| 2026-04-22 02:38 | 27.99612 | -82.03659 | 843 ft | 105 kts | 159° |
| 2026-04-22 02:38 | 27.99119 | -82.03083 | 508 ft | 105 kts | 114° |
| 2026-04-22 02:38 | 27.99042 | -82.02304 | 189 ft | 95 kts | 88° |
| 2026-04-22 02:38 | 27.99047 | -82.01670 | 140 ft | 62 kts | 89° |
| 2026-04-22 02:39 | 27.99041 | -82.01241 | 143 ft | 49 kts | 90° |
| 2026-04-22 02:39 | 27.99044 | -82.00906 | 146 ft | 34 kts | 90° |
| 2026-04-22 02:39 | 27.99101 | -82.00746 | 148 ft | 23 kts | 21° |
| 2026-04-22 02:39 | 27.99201 | -82.00765 | 148 ft | 9 kts | 62° |
| 2026-04-22 02:40 | 27.99203 | -82.00762 | 148 ft | 0 kts | 71° |